Time;durP1;ratioP1;P1;durP2;ratioP2;P2;SDS_P1;SDS_P2;PMS_P1;PMS_P2;Temp;Humidity;BMP_temperature;BMP_pressure;BME280_temperature;BME280_humidity;BME280_pressure;Samples;Min_cycle;Max_cycle;Signal;HPM_P1;HPM_P2
2022/08/19 00:01:11;;;;;;;9.07;4.60;;;;;;;;;;5072031;28;20036;-78
2022/08/19 00:03:37;;;;;;;9.98;5.10;;;;;;;;;;5061995;28;20025;-78
2022/08/19 00:06:03;;;;;;;8.10;4.35;;;;;;;;;;5068061;28;20040;-78
2022/08/19 00:08:29;;;;;;;7.45;4.82;;;;;;;;;;5072116;28;20039;-78
2022/08/19 00:10:55;;;;;;;9.10;4.32;;;;;;;;;;5070641;28;20032;-78
2022/08/19 00:13:21;;;;;;;9.77;4.90;;;;;;;;;;5068608;28;20440;-78
2022/08/19 00:15:47;;;;;;;10.48;4.15;;;;;;;;;;5071456;28;20040;-78
2022/08/19 00:18:13;;;;;;;9.55;4.78;;;;;;;;;;5071625;28;20070;-78
2022/08/19 00:20:40;;;;;;;10.55;4.75;;;;;;;;;;5071066;28;20033;-78
2022/08/19 00:23:06;;;;;;;8.25;4.50;;;;;;;;;;5071953;28;20584;-78
2022/08/19 00:25:33;;;;;;;16.83;5.00;;;;;;;;;;5071483;28;20024;-78
2022/08/19 00:27:59;;;;;;;6.63;4.43;;;;;;;;;;5064081;28;20040;-78
2022/08/19 00:30:27;;;;;;;6.50;3.80;;;;;;;;;;5069537;28;20039;-78
2022/08/19 00:32:54;;;;;;;6.95;3.70;;;;;;;;;;5071640;28;20478;-78
2022/08/19 00:35:20;;;;;;;7.10;3.95;;;;;;;;;;5071734;28;20059;-78
2022/08/19 00:37:48;;;;;;;7.35;3.65;;;;;;;;;;5069445;28;20041;-78
2022/08/19 00:40:14;;;;;;;8.48;3.92;;;;;;;;;;5067439;28;20048;-78
2022/08/19 00:42:41;;;;;;;7.07;3.65;;;;;;;;;;5072357;28;20082;-78
2022/08/19 00:45:12;;;;;;;6.70;3.97;;;;;;;;;;5067360;28;20060;-78
2022/08/19 00:47:38;;;;;;;12.20;4.85;;;;;;;;;;5062646;28;20052;-78
2022/08/19 00:50:05;;;;;;;8.93;4.43;;;;;;;;;;5065052;28;20082;-78
2022/08/19 00:52:34;;;;;;;10.38;4.95;;;;;;;;;;5071012;28;20036;-78
2022/08/19 00:55:00;;;;;;;10.70;4.32;;;;;;;;;;5070769;28;20070;-78
2022/08/19 00:57:33;;;;;;;9.70;5.20;;;;;;;;;;5068342;28;20111;-78
2022/08/19 00:59:59;;;;;;;9.93;6.07;;;;;;;;;;5052254;28;20037;-78
2022/08/19 01:02:26;;;;;;;11.45;5.68;;;;;;;;;;5070493;28;20033;-78
2022/08/19 01:04:52;;;;;;;8.95;5.88;;;;;;;;;;5071275;28;20036;-77
2022/08/19 01:07:18;;;;;;;7.30;5.32;;;;;;;;;;5069202;28;20048;-78
2022/08/19 01:09:44;;;;;;;8.05;5.07;;;;;;;;;;5070495;28;20028;-78
2022/08/19 01:12:10;;;;;;;10.50;6.50;;;;;;;;;;5062365;28;20032;-78
2022/08/19 01:14:38;;;;;;;8.93;5.03;;;;;;;;;;5062076;28;20032;-78
2022/08/19 01:17:04;;;;;;;9.30;3.88;;;;;;;;;;5069537;28;20035;-78
2022/08/19 01:19:36;;;;;;;7.05;4.47;;;;;;;;;;5069088;28;20033;-78
2022/08/19 01:22:04;;;;;;;12.45;5.38;;;;;;;;;;5070035;28;20048;-78
2022/08/19 01:24:30;;;;;;;7.30;4.95;;;;;;;;;;5070219;28;20086;-77
2022/08/19 01:26:56;;;;;;;11.55;5.00;;;;;;;;;;5070047;28;20017;-77
2022/08/19 01:29:22;;;;;;;8.10;5.32;;;;;;;;;;5056174;28;20103;-77
2022/08/19 01:31:51;;;;;;;10.15;4.85;;;;;;;;;;5067024;28;20135;-78
2022/08/19 01:34:18;;;;;;;8.85;5.47;;;;;;;;;;5066894;28;20470;-77
2022/08/19 01:36:45;;;;;;;6.35;4.70;;;;;;;;;;5070707;28;20028;-78
2022/08/19 01:39:14;;;;;;;7.15;4.82;;;;;;;;;;5066300;28;20085;-78
2022/08/19 01:41:40;;;;;;;11.82;5.97;;;;;;;;;;5069984;28;20032;-78
2022/08/19 01:44:07;;;;;;;8.35;5.20;;;;;;;;;;5069558;28;20512;-78
2022/08/19 01:46:33;;;;;;;8.88;5.10;;;;;;;;;;5053610;28;20040;-78
2022/08/19 01:49:00;;;;;;;10.27;5.35;;;;;;;;;;5064295;28;20446;-78
2022/08/19 01:51:26;;;;;;;8.60;4.80;;;;;;;;;;5069433;28;20556;-78
2022/08/19 01:53:52;;;;;;;8.45;5.15;;;;;;;;;;5066276;28;20033;-77
2022/08/19 01:56:19;;;;;;;11.35;5.25;;;;;;;;;;5066195;28;20086;-77
2022/08/19 01:58:48;;;;;;;8.82;5.55;;;;;;;;;;5063752;28;20134;-77
2022/08/19 02:01:14;;;;;;;10.80;6.53;;;;;;;;;;5050359;28;20411;-77
2022/08/19 02:03:40;;;;;;;13.13;6.28;;;;;;;;;;5062676;28;20032;-77
2022/08/19 02:06:06;;;;;;;9.68;6.13;;;;;;;;;;5056050;28;20039;-77
2022/08/19 02:08:33;;;;;;;10.43;7.20;;;;;;;;;;5063194;28;20028;-77
2022/08/19 02:10:59;;;;;;;13.90;6.70;;;;;;;;;;5064317;28;20063;-77
2022/08/19 02:13:26;;;;;;;15.38;7.60;;;;;;;;;;5066480;28;20481;-77
2022/08/19 02:15:52;;;;;;;21.02;8.63;;;;;;;;;;5056241;28;20569;-76
2022/08/19 02:18:18;;;;;;;15.52;8.30;;;;;;;;;;5068051;28;20175;-77
2022/08/19 02:20:44;;;;;;;10.95;7.85;;;;;;;;;;5062009;28;20037;-77
2022/08/19 02:23:11;;;;;;;11.20;7.40;;;;;;;;;;5069112;28;20028;-77
2022/08/19 02:25:38;;;;;;;9.43;7.05;;;;;;;;;;5068865;28;20028;-77
2022/08/19 02:28:04;;;;;;;12.38;7.35;;;;;;;;;;5068528;28;20028;-76
2022/08/19 02:30:30;;;;;;;12.57;7.68;;;;;;;;;;5067381;28;20199;-76
2022/08/19 02:32:56;;;;;;;10.70;7.60;;;;;;;;;;5068141;28;20033;-76
2022/08/19 02:35:22;;;;;;;12.57;9.60;;;;;;;;;;5069008;28;20025;-76
2022/08/19 02:40:34;;;;;;;12.18;7.55;;;;;;;;;;5063168;28;20051;-77
2022/08/19 02:43:00;;;;;;;10.13;6.93;;;;;;;;;;5064300;28;20036;-77
2022/08/19 02:45:26;;;;;;;12.30;8.48;;;;;;;;;;5064443;28;20175;-77
2022/08/19 02:47:52;;;;;;;11.80;7.07;;;;;;;;;;5068326;28;20041;-76
2022/08/19 02:50:19;;;;;;;11.50;7.40;;;;;;;;;;5067354;28;20048;-76
2022/08/19 02:52:45;;;;;;;13.75;9.23;;;;;;;;;;5060574;28;20040;-76
2022/08/19 02:55:11;;;;;;;15.35;10.30;;;;;;;;;;5059677;28;20033;-76
2022/08/19 02:57:37;;;;;;;12.85;8.55;;;;;;;;;;5059257;28;20041;-76
2022/08/19 03:00:07;;;;;;;15.75;10.23;;;;;;;;;;5067339;28;20020;-76
2022/08/19 03:02:33;;;;;;;11.27;9.13;;;;;;;;;;5058047;28;20052;-76
2022/08/19 03:04:59;;;;;;;13.82;7.88;;;;;;;;;;5065593;28;20028;-76
2022/08/19 03:07:25;;;;;;;8.43;6.70;;;;;;;;;;5057643;28;21941;-76
2022/08/19 03:09:51;;;;;;;9.20;6.50;;;;;;;;;;5067374;28;20034;-76
2022/08/19 03:12:17;;;;;;;9.88;8.10;;;;;;;;;;5058681;28;20041;-76
2022/08/19 03:14:45;;;;;;;11.98;7.90;;;;;;;;;;5069257;28;20381;-76
2022/08/19 03:17:12;;;;;;;10.88;9.50;;;;;;;;;;5059491;28;20016;-76
2022/08/19 03:19:38;;;;;;;10.85;9.35;;;;;;;;;;5067992;28;20033;-76
2022/08/19 03:22:04;;;;;;;9.30;7.88;;;;;;;;;;5067557;28;20606;-76
2022/08/19 03:24:30;;;;;;;8.63;7.15;;;;;;;;;;5068997;28;20060;-76
2022/08/19 03:26:57;;;;;;;11.73;8.15;;;;;;;;;;5069921;28;20037;-77
2022/08/19 03:29:24;;;;;;;10.30;7.28;;;;;;;;;;5063547;28;20074;-77
2022/08/19 03:31:51;;;;;;;9.93;7.40;;;;;;;;;;5063786;28;20393;-77
2022/08/19 03:34:22;;;;;;;10.27;6.80;;;;;;;;;;5061667;28;20454;-77
2022/08/19 03:36:48;;;;;;;12.63;7.67;;;;;;;;;;5070997;28;20385;-77
2022/08/19 03:39:15;;;;;;;9.20;6.82;;;;;;;;;;5065741;28;20045;-77
2022/08/19 03:41:42;;;;;;;8.60;6.40;;;;;;;;;;5062140;28;20825;-77
2022/08/19 03:44:08;;;;;;;10.93;6.63;;;;;;;;;;5073359;28;20082;-77
2022/08/19 03:46:35;;;;;;;6.43;4.43;;;;;;;;;;5063563;28;20686;-76
2022/08/19 03:49:04;;;;;;;4.88;3.45;;;;;;;;;;5066137;28;20021;-76
2022/08/19 03:51:31;;;;;;;5.82;2.90;;;;;;;;;;5062334;28;20595;-76
2022/08/19 03:53:58;;;;;;;5.90;3.60;;;;;;;;;;5067696;28;20103;-76
2022/08/19 03:56:25;;;;;;;4.97;3.35;;;;;;;;;;5066938;28;20037;-77
2022/08/19 03:58:52;;;;;;;3.80;2.40;;;;;;;;;;5070776;28;20017;-77
2022/08/19 04:01:20;;;;;;;5.68;2.55;;;;;;;;;;5073865;28;20036;-77
2022/08/19 04:03:47;;;;;;;4.93;2.78;;;;;;;;;;5074534;28;20025;-77
2022/08/19 04:06:14;;;;;;;4.85;3.35;;;;;;;;;;5074240;28;20037;-77
2022/08/19 04:08:41;;;;;;;5.13;3.08;;;;;;;;;;5068659;28;20385;-77
2022/08/19 04:11:08;;;;;;;6.75;2.67;;;;;;;;;;5074146;28;20032;-76
2022/08/19 04:13:34;;;;;;;4.72;2.70;;;;;;;;;;5074526;28;20028;-76
2022/08/19 04:16:00;;;;;;;4.57;2.40;;;;;;;;;;5073883;28;20108;-76
2022/08/19 04:18:29;;;;;;;4.75;2.70;;;;;;;;;;5074111;28;20043;-76
2022/08/19 04:20:56;;;;;;;6.22;2.25;;;;;;;;;;5073990;28;20064;-76
2022/08/19 04:23:22;;;;;;;6.68;3.28;;;;;;;;;;5074542;28;20454;-77
2022/08/19 04:25:48;;;;;;;4.30;3.35;;;;;;;;;;5073627;28;20036;-76
2022/08/19 04:28:15;;;;;;;6.45;3.33;;;;;;;;;;5074165;28;20024;-76
2022/08/19 04:30:43;;;;;;;3.75;2.70;;;;;;;;;;5073780;28;20051;-77
2022/08/19 04:33:10;;;;;;;4.50;3.08;;;;;;;;;;5074111;28;20472;-77
2022/08/19 04:35:37;;;;;;;3.78;2.70;;;;;;;;;;5074487;28;20524;-77
2022/08/19 04:38:04;;;;;;;5.70;2.50;;;;;;;;;;5073850;28;20024;-77
2022/08/19 04:43:15;;;;;;;4.13;2.95;;;;;;;;;;5070635;28;20047;-76
2022/08/19 04:45:41;;;;;;;5.75;3.72;;;;;;;;;;5067356;28;20055;-76
2022/08/19 04:48:07;;;;;;;5.05;3.05;;;;;;;;;;5063227;28;20103;-76
2022/08/19 04:50:33;;;;;;;7.47;3.65;;;;;;;;;;5072846;28;20112;-77
2022/08/19 04:52:59;;;;;;;6.45;3.30;;;;;;;;;;5063586;28;20032;-77
2022/08/19 04:55:25;;;;;;;10.10;3.70;;;;;;;;;;5073156;28;20032;-76
2022/08/19 04:57:51;;;;;;;5.25;2.95;;;;;;;;;;5072801;28;20032;-76
2022/08/19 05:00:17;;;;;;;6.72;3.70;;;;;;;;;;5071584;28;20752;-77
2022/08/19 05:02:43;;;;;;;5.93;3.25;;;;;;;;;;5071827;28;20442;-77
2022/08/19 05:05:10;;;;;;;8.30;4.38;;;;;;;;;;5062631;28;20067;-77
2022/08/19 05:07:36;;;;;;;6.82;3.80;;;;;;;;;;5065488;28;20029;-77
2022/08/19 05:10:05;;;;;;;5.50;3.80;;;;;;;;;;5055900;28;20033;-77
2022/08/19 05:12:31;;;;;;;5.70;2.92;;;;;;;;;;5071962;28;20052;-77
2022/08/19 05:14:57;;;;;;;4.88;2.97;;;;;;;;;;5072935;28;20086;-77
2022/08/19 05:17:24;;;;;;;5.30;3.60;;;;;;;;;;5065243;28;20478;-77
2022/08/19 05:22:35;;;;;;;8.50;3.97;;;;;;;;;;5071573;28;20086;-77
2022/08/19 05:25:12;;;;;;;5.72;3.47;;;;;;;;;;5068709;28;20029;-77
2022/08/19 05:27:38;;;;;;;5.10;3.15;;;;;;;;;;5071432;28;20052;-77
2022/08/19 05:30:05;;;;;;;7.65;3.33;;;;;;;;;;5072821;28;20051;-77
2022/08/19 05:32:31;;;;;;;8.65;2.80;;;;;;;;;;5071521;28;20033;-77
2022/08/19 05:34:57;;;;;;;4.70;3.05;;;;;;;;;;5066439;28;20039;-77
2022/08/19 05:37:26;;;;;;;5.30;2.60;;;;;;;;;;5062997;28;20025;-76
2022/08/19 05:39:52;;;;;;;6.55;3.53;;;;;;;;;;5066238;28;20057;-77
2022/08/19 05:42:19;;;;;;;5.90;3.10;;;;;;;;;;5060285;28;20032;-77
2022/08/19 05:44:46;;;;;;;5.75;3.05;;;;;;;;;;5071306;28;20111;-77
2022/08/19 05:47:14;;;;;;;6.18;3.13;;;;;;;;;;5061419;28;20072;-77
2022/08/19 05:49:41;;;;;;;4.57;2.60;;;;;;;;;;5067994;28;20352;-77
2022/08/19 05:52:08;;;;;;;4.20;3.00;;;;;;;;;;5071444;28;20139;-77
2022/08/19 05:54:35;;;;;;;5.00;3.38;;;;;;;;;;5069326;28;20032;-77
2022/08/19 05:57:02;;;;;;;5.55;2.88;;;;;;;;;;5067102;28;20044;-77
2022/08/19 05:59:28;;;;;;;5.78;3.33;;;;;;;;;;5062655;28;20514;-77
2022/08/19 06:01:56;;;;;;;8.32;4.10;;;;;;;;;;5060917;28;20116;-77
2022/08/19 06:04:22;;;;;;;6.63;3.45;;;;;;;;;;5066972;28;20024;-77
2022/08/19 06:06:51;;;;;;;7.22;5.18;;;;;;;;;;5062311;28;20036;-77
2022/08/19 06:09:18;;;;;;;6.65;2.90;;;;;;;;;;5069101;28;20754;-77
2022/08/19 06:11:46;;;;;;;7.65;3.30;;;;;;;;;;5056844;28;20056;-77
2022/08/19 06:14:20;;;;;;;6.40;2.97;;;;;;;;;;5069899;28;20066;-77
2022/08/19 06:16:47;;;;;;;6.93;3.35;;;;;;;;;;5060761;28;20028;-77
2022/08/19 06:19:15;;;;;;;6.38;2.55;;;;;;;;;;5070926;28;20446;-77
2022/08/19 06:21:43;;;;;;;7.97;3.60;;;;;;;;;;5066740;28;20119;-77
2022/08/19 06:24:10;;;;;;;5.53;3.05;;;;;;;;;;5074424;28;20033;-77
2022/08/19 06:26:37;;;;;;;8.88;3.63;;;;;;;;;;5071805;28;20035;-77
2022/08/19 06:29:05;;;;;;;5.18;3.03;;;;;;;;;;5072336;28;20074;-77
2022/08/19 06:31:33;;;;;;;6.82;4.00;;;;;;;;;;5070259;28;20021;-77
2022/08/19 06:33:59;;;;;;;7.35;3.58;;;;;;;;;;5059819;28;20039;-77
2022/08/19 06:36:27;;;;;;;8.13;4.63;;;;;;;;;;5075531;28;20466;-77
2022/08/19 06:38:54;;;;;;;9.48;4.00;;;;;;;;;;5068252;28;20078;-77
2022/08/19 06:41:20;;;;;;;10.27;4.35;;;;;;;;;;5055528;28;20033;-76
2022/08/19 06:43:48;;;;;;;6.70;3.50;;;;;;;;;;5067216;28;20029;-77
2022/08/19 06:46:15;;;;;;;7.50;3.55;;;;;;;;;;5070748;28;20024;-77
2022/08/19 06:48:41;;;;;;;6.65;3.88;;;;;;;;;;5072803;28;20029;-77
2022/08/19 06:51:07;;;;;;;9.18;3.42;;;;;;;;;;5071666;28;20098;-78
2022/08/19 06:53:34;;;;;;;5.85;3.58;;;;;;;;;;5070656;28;20040;-77
2022/08/19 06:56:03;;;;;;;5.45;3.15;;;;;;;;;;5066479;28;20093;-77
2022/08/19 06:58:32;;;;;;;7.25;3.95;;;;;;;;;;5071061;28;20035;-77
2022/08/19 07:01:00;;;;;;;5.18;3.20;;;;;;;;;;5070020;28;20111;-77
2022/08/19 07:03:28;;;;;;;6.53;3.33;;;;;;;;;;5070813;28;20066;-76
2022/08/19 07:05:54;;;;;;;8.48;3.28;;;;;;;;;;5077658;28;20028;-77
2022/08/19 07:08:20;;;;;;;8.27;3.58;;;;;;;;;;5065540;28;20099;-76
2022/08/19 07:10:47;;;;;;;6.32;3.20;;;;;;;;;;5065665;28;20608;-77
2022/08/19 07:13:14;;;;;;;12.02;3.85;;;;;;;;;;5070412;28;20111;-77
2022/08/19 07:15:40;;;;;;;9.05;3.65;;;;;;;;;;5071597;28;20036;-77
2022/08/19 07:18:06;;;;;;;7.07;3.13;;;;;;;;;;5079920;28;20038;-77
2022/08/19 07:20:32;;;;;;;4.25;2.33;;;;;;;;;;5073114;28;20881;-76
2022/08/19 07:22:58;;;;;;;3.67;1.90;;;;;;;;;;5063473;28;20077;-77
2022/08/19 07:25:24;;;;;;;3.30;2.10;;;;;;;;;;5073312;28;20017;-76
2022/08/19 07:27:50;;;;;;;5.80;2.20;;;;;;;;;;5074316;28;20031;-77
2022/08/19 07:30:16;;;;;;;10.18;2.00;;;;;;;;;;5071343;28;20040;-77
2022/08/19 07:32:42;;;;;;;3.53;1.70;;;;;;;;;;5078685;28;20036;-77
2022/08/19 07:35:09;;;;;;;5.07;2.65;;;;;;;;;;5076436;28;20028;-77
2022/08/19 07:37:36;;;;;;;3.40;1.92;;;;;;;;;;5073062;28;20029;-77
2022/08/19 07:40:04;;;;;;;6.13;2.10;;;;;;;;;;5078676;28;20055;-77
2022/08/19 07:42:30;;;;;;;5.45;2.20;;;;;;;;;;5069603;28;20078;-77
2022/08/19 07:44:55;;;;;;;6.68;2.60;;;;;;;;;;5072689;28;20032;-77
2022/08/19 07:47:22;;;;;;;6.53;2.42;;;;;;;;;;5068488;28;20052;-77
2022/08/19 07:49:48;;;;;;;8.77;2.83;;;;;;;;;;5071864;28;20103;-77
2022/08/19 07:52:16;;;;;;;9.32;3.35;;;;;;;;;;5071998;28;20051;-77
2022/08/19 07:54:42;;;;;;;5.35;2.92;;;;;;;;;;5070137;28;20036;-77
2022/08/19 07:57:08;;;;;;;6.20;3.30;;;;;;;;;;5070272;28;20078;-76
2022/08/19 07:59:35;;;;;;;4.53;2.30;;;;;;;;;;5062097;28;20143;-76
2022/08/19 08:02:02;;;;;;;3.80;2.55;;;;;;;;;;5070435;28;20021;-77
2022/08/19 08:09:59;;;;;;;5.15;2.30;;;;;;;;;;5071975;28;20398;-77
2022/08/19 08:12:30;;;;;;;5.07;2.35;;;;;;;;;;5072526;28;20147;-77
2022/08/19 08:14:58;;;;;;;3.67;2.20;;;;;;;;;;5080064;28;20032;-77
2022/08/19 08:17:27;;;;;;;8.68;2.22;;;;;;;;;;5072492;28;20030;-76
2022/08/19 08:19:53;;;;;;;4.35;1.90;;;;;;;;;;5072868;28;20037;-77
2022/08/19 08:25:07;;;;;;;3.85;2.10;;;;;;;;;;5071048;28;20731;-77
2022/08/19 08:27:39;;;;;;;4.05;2.00;;;;;;;;;;5072248;28;20032;-77
2022/08/19 08:30:06;;;;;;;5.40;2.05;;;;;;;;;;5071133;28;20050;-76
2022/08/19 08:32:32;;;;;;;5.47;2.50;;;;;;;;;;5067143;28;20036;-77
2022/08/19 08:34:59;;;;;;;6.07;1.80;;;;;;;;;;5071190;28;20162;-77
2022/08/19 08:37:25;;;;;;;5.65;2.90;;;;;;;;;;5072983;28;20025;-77
2022/08/19 08:39:51;;;;;;;5.03;2.38;;;;;;;;;;5053953;28;20063;-77
2022/08/19 08:42:34;;;;;;;5.15;2.40;;;;;;;;;;5073544;28;20473;-77
2022/08/19 08:45:04;;;;;;;5.22;2.28;;;;;;;;;;5076760;28;20020;-77
2022/08/19 08:47:34;;;;;;;4.45;2.42;;;;;;;;;;5077635;28;20036;-77
2022/08/19 08:50:05;;;;;;;2.90;1.73;;;;;;;;;;5071520;28;20570;-77
2022/08/19 08:52:36;;;;;;;3.75;2.15;;;;;;;;;;5072732;28;20028;-77
2022/08/19 08:55:10;;;;;;;4.85;2.47;;;;;;;;;;5068952;28;20028;-77
2022/08/19 08:57:36;;;;;;;3.53;2.20;;;;;;;;;;5063504;28;20032;-77
2022/08/19 09:00:06;;;;;;;5.78;2.60;;;;;;;;;;5067637;28;20028;-77
2022/08/19 09:02:32;;;;;;;4.65;2.70;;;;;;;;;;5062877;28;20116;-77
2022/08/19 09:04:58;;;;;;;7.93;3.30;;;;;;;;;;5071753;28;20477;-77
2022/08/19 09:07:30;;;;;;;6.88;3.47;;;;;;;;;;5075282;28;20029;-77
2022/08/19 09:10:16;;;;;;;6.05;3.28;;;;;;;;;;5074603;28;20021;-76
2022/08/19 09:12:49;;;;;;;6.00;2.10;;;;;;;;;;5064921;28;20926;-77
2022/08/19 09:15:17;;;;;;;4.13;2.40;;;;;;;;;;5067436;28;20017;-77
2022/08/19 09:17:44;;;;;;;5.15;3.08;;;;;;;;;;5070420;28;20042;-77
2022/08/19 09:20:10;;;;;;;4.63;2.90;;;;;;;;;;5065342;28;20470;-77
2022/08/19 09:22:37;;;;;;;8.57;2.88;;;;;;;;;;5073898;28;20648;-77
2022/08/19 09:25:04;;;;;;;4.97;2.90;;;;;;;;;;5072764;28;20056;-78
2022/08/19 09:27:31;;;;;;;4.93;2.88;;;;;;;;;;5056021;28;20037;-77
2022/08/19 09:29:57;;;;;;;4.43;3.05;;;;;;;;;;5074301;28;20107;-77
2022/08/19 09:32:25;;;;;;;7.05;3.40;;;;;;;;;;5071963;28;20470;-77
2022/08/19 09:34:54;;;;;;;6.78;3.13;;;;;;;;;;5070199;28;20058;-77
2022/08/19 09:37:21;;;;;;;5.07;3.58;;;;;;;;;;5077719;28;20060;-77
2022/08/19 09:39:47;;;;;;;4.88;3.38;;;;;;;;;;5071676;28;20114;-77
2022/08/19 09:42:14;;;;;;;6.53;3.60;;;;;;;;;;5071944;28;20028;-77
2022/08/19 09:44:40;;;;;;;4.55;3.13;;;;;;;;;;5071645;28;20062;-77
2022/08/19 09:47:07;;;;;;;7.10;3.63;;;;;;;;;;5077961;28;20032;-77
2022/08/19 09:49:33;;;;;;;6.07;3.58;;;;;;;;;;5070007;28;20594;-77
2022/08/19 09:51:59;;;;;;;5.47;2.97;;;;;;;;;;5071590;28;20059;-77
2022/08/19 09:54:26;;;;;;;5.28;3.25;;;;;;;;;;5078041;28;20052;-76
2022/08/19 09:56:53;;;;;;;7.30;3.90;;;;;;;;;;5067052;28;20040;-77
2022/08/19 09:59:19;;;;;;;6.38;3.97;;;;;;;;;;5056190;28;20066;-77
2022/08/19 10:01:45;;;;;;;9.13;4.22;;;;;;;;;;5070570;28;20373;-77
2022/08/19 10:04:11;;;;;;;8.40;4.30;;;;;;;;;;5069594;28;20091;-77
2022/08/19 10:06:39;;;;;;;5.20;3.67;;;;;;;;;;5068185;28;20155;-77
2022/08/19 10:09:07;;;;;;;7.68;3.42;;;;;;;;;;5071612;28;20028;-77
2022/08/19 10:11:34;;;;;;;6.30;3.65;;;;;;;;;;5072495;28;20032;-77
2022/08/19 10:14:00;;;;;;;5.03;3.60;;;;;;;;;;5071648;28;20102;-77
2022/08/19 10:16:26;;;;;;;7.97;3.45;;;;;;;;;;5073555;28;20070;-77
2022/08/19 10:18:53;;;;;;;6.03;3.65;;;;;;;;;;5072496;28;20024;-77
2022/08/19 10:21:20;;;;;;;6.10;3.60;;;;;;;;;;5060121;28;20646;-77
2022/08/19 10:23:48;;;;;;;5.72;3.80;;;;;;;;;;5072883;28;20056;-77
2022/08/19 10:26:16;;;;;;;6.20;3.58;;;;;;;;;;5066136;28;20039;-77
2022/08/19 10:28:42;;;;;;;8.48;4.13;;;;;;;;;;5059523;28;20100;-77
2022/08/19 10:31:09;;;;;;;4.93;3.22;;;;;;;;;;5074107;28;20041;-77
2022/08/19 10:33:36;;;;;;;5.90;4.07;;;;;;;;;;5060614;28;20032;-77
2022/08/19 10:36:07;;;;;;;7.50;3.65;;;;;;;;;;5071615;28;20048;-77
2022/08/19 10:38:34;;;;;;;5.33;3.60;;;;;;;;;;5070765;28;20024;-77
2022/08/19 10:41:15;;;;;;;5.43;3.28;;;;;;;;;;5071794;28;20056;-77
2022/08/19 10:43:41;;;;;;;6.63;4.32;;;;;;;;;;5066779;28;20113;-77
2022/08/19 10:46:11;;;;;;;5.15;3.78;;;;;;;;;;5064357;28;20036;-77
2022/08/19 10:48:37;;;;;;;6.57;4.03;;;;;;;;;;5074225;28;20033;-77
2022/08/19 10:53:49;;;;;;;5.63;4.20;;;;;;;;;;5072125;28;20070;-78
2022/08/19 10:59:01;;;;;;;5.53;4.35;;;;;;;;;;5079043;28;20051;-77
2022/08/19 11:01:29;;;;;;;6.07;3.78;;;;;;;;;;5073288;28;20074;-77
2022/08/19 11:03:57;;;;;;;5.85;3.75;;;;;;;;;;5070394;28;20074;-77
2022/08/19 11:06:26;;;;;;;6.43;3.20;;;;;;;;;;5074372;28;20032;-77
2022/08/19 11:08:54;;;;;;;5.45;3.53;;;;;;;;;;5074500;28;20033;-77
2022/08/19 11:11:21;;;;;;;5.15;3.60;;;;;;;;;;5074054;28;20470;-77
2022/08/19 11:13:47;;;;;;;5.32;3.85;;;;;;;;;;5068177;28;20450;-77
2022/08/19 11:16:15;;;;;;;6.30;4.60;;;;;;;;;;5067379;28;20033;-77
2022/08/19 11:18:44;;;;;;;4.60;3.15;;;;;;;;;;5074236;28;20036;-77
2022/08/19 11:21:12;;;;;;;5.45;4.25;;;;;;;;;;5073847;28;21889;-77
2022/08/19 11:23:38;;;;;;;5.30;3.70;;;;;;;;;;5073637;28;20040;-77
2022/08/19 11:26:04;;;;;;;6.28;4.10;;;;;;;;;;5076051;28;20716;-77
2022/08/19 11:28:30;;;;;;;6.72;4.18;;;;;;;;;;5077005;28;20077;-77
2022/08/19 11:30:56;;;;;;;5.20;4.05;;;;;;;;;;5072760;28;20119;-77
2022/08/19 11:33:22;;;;;;;7.50;4.35;;;;;;;;;;5066428;28;20128;-77
2022/08/19 11:35:49;;;;;;;6.28;4.60;;;;;;;;;;5073822;28;20086;-77
2022/08/19 11:38:15;;;;;;;6.40;4.90;;;;;;;;;;5065586;28;20099;-77
2022/08/19 11:40:42;;;;;;;6.03;3.95;;;;;;;;;;5069455;28;20053;-77
2022/08/19 11:43:08;;;;;;;6.60;4.45;;;;;;;;;;5073378;28;20754;-78
2022/08/19 11:45:34;;;;;;;7.45;4.47;;;;;;;;;;5070621;28;20021;-77
2022/08/19 11:48:00;;;;;;;5.47;4.03;;;;;;;;;;5073432;28;20036;-77
2022/08/19 11:50:26;;;;;;;5.80;4.00;;;;;;;;;;5064583;28;20461;-77
2022/08/19 11:52:56;;;;;;;7.13;4.95;;;;;;;;;;5081004;28;20078;-77
2022/08/19 11:55:22;;;;;;;6.45;4.60;;;;;;;;;;5072924;28;20028;-77
2022/08/19 11:57:48;;;;;;;7.57;4.68;;;;;;;;;;5072702;28;20339;-77
2022/08/19 12:00:14;;;;;;;6.40;4.88;;;;;;;;;;5073720;28;20035;-77
2022/08/19 12:02:42;;;;;;;6.45;4.82;;;;;;;;;;5073005;28;20040;-77
2022/08/19 12:05:08;;;;;;;5.85;4.78;;;;;;;;;;5066867;28;20080;-77
2022/08/19 12:07:34;;;;;;;6.07;4.70;;;;;;;;;;5072246;28;20075;-77
2022/08/19 12:10:01;;;;;;;5.35;4.15;;;;;;;;;;5067773;28;20033;-77
2022/08/19 12:12:27;;;;;;;5.68;4.13;;;;;;;;;;5064525;28;20060;-77
2022/08/19 12:14:56;;;;;;;6.63;4.72;;;;;;;;;;5067481;28;20032;-77
2022/08/19 12:17:26;;;;;;;7.30;4.57;;;;;;;;;;5065534;28;20041;-77
2022/08/19 12:19:52;;;;;;;5.93;4.93;;;;;;;;;;5069460;28;20046;-77
2022/08/19 12:22:18;;;;;;;5.70;4.38;;;;;;;;;;5066707;28;20025;-77
2022/08/19 12:24:44;;;;;;;5.35;4.18;;;;;;;;;;5073459;28;20095;-77
2022/08/19 12:27:10;;;;;;;5.88;4.47;;;;;;;;;;5074261;28;20048;-77
2022/08/19 12:29:36;;;;;;;5.70;4.50;;;;;;;;;;5071136;28;20029;-77
2022/08/19 12:32:02;;;;;;;6.93;4.43;;;;;;;;;;5068838;28;20036;-77
2022/08/19 12:34:32;;;;;;;6.22;4.57;;;;;;;;;;5073237;28;20032;-77
2022/08/19 12:36:59;;;;;;;6.38;3.90;;;;;;;;;;5067781;28;20036;-77
2022/08/19 12:39:25;;;;;;;6.78;4.45;;;;;;;;;;5053186;28;20068;-77
2022/08/19 12:41:51;;;;;;;6.32;4.25;;;;;;;;;;5057431;28;20032;-77
2022/08/19 12:44:17;;;;;;;7.22;5.57;;;;;;;;;;5044309;28;20067;-77
2022/08/19 12:46:43;;;;;;;6.43;4.95;;;;;;;;;;5052251;28;20033;-77
2022/08/19 12:49:09;;;;;;;7.22;5.20;;;;;;;;;;5052402;28;20021;-77
2022/08/19 12:51:35;;;;;;;6.60;5.10;;;;;;;;;;5055083;28;20037;-78
2022/08/19 12:54:01;;;;;;;7.95;5.32;;;;;;;;;;5053623;28;20108;-77
2022/08/19 12:56:27;;;;;;;7.47;5.72;;;;;;;;;;5044028;28;20082;-77
2022/08/19 12:58:53;;;;;;;8.13;5.28;;;;;;;;;;5058541;28;20032;-77
2022/08/19 13:01:20;;;;;;;8.30;5.72;;;;;;;;;;5063548;28;20064;-77
2022/08/19 13:03:46;;;;;;;9.05;6.10;;;;;;;;;;5049732;28;20028;-77
2022/08/19 13:06:13;;;;;;;8.27;5.75;;;;;;;;;;5051867;28;20542;-77
2022/08/19 13:08:39;;;;;;;7.57;6.20;;;;;;;;;;5050534;28;20039;-77
2022/08/19 13:11:12;;;;;;;6.72;5.15;;;;;;;;;;5053667;28;20040;-77
2022/08/19 13:13:40;;;;;;;7.78;5.85;;;;;;;;;;5055335;28;20033;-77
2022/08/19 13:16:07;;;;;;;6.85;5.50;;;;;;;;;;5052314;28;20040;-77
2022/08/19 13:18:33;;;;;;;8.48;4.80;;;;;;;;;;5052659;28;20040;-77
2022/08/19 13:21:04;;;;;;;6.05;4.78;;;;;;;;;;5043912;28;20722;-77
2022/08/19 13:23:30;;;;;;;7.38;5.03;;;;;;;;;;5044067;28;20021;-77
2022/08/19 13:25:57;;;;;;;6.90;5.28;;;;;;;;;;5054606;28;20029;-77
2022/08/19 13:28:23;;;;;;;7.47;5.43;;;;;;;;;;5053043;28;20370;-77
2022/08/19 13:33:34;;;;;;;6.50;4.70;;;;;;;;;;5047304;28;20075;-77
2022/08/19 13:36:00;;;;;;;9.93;5.50;;;;;;;;;;5045608;28;20038;-77
2022/08/19 13:38:27;;;;;;;8.82;4.60;;;;;;;;;;5050690;28;20029;-77
2022/08/19 13:40:54;;;;;;;6.85;5.20;;;;;;;;;;5069613;28;20151;-78
2022/08/19 13:43:22;;;;;;;7.07;4.90;;;;;;;;;;5069375;28;20059;-77
2022/08/19 13:45:48;;;;;;;6.07;4.82;;;;;;;;;;5063879;28;20032;-77
2022/08/19 13:48:15;;;;;;;7.22;4.43;;;;;;;;;;5069623;28;20028;-77
2022/08/19 13:50:42;;;;;;;6.55;5.40;;;;;;;;;;5075020;28;20024;-77
2022/08/19 13:53:09;;;;;;;5.55;4.38;;;;;;;;;;5069566;28;20056;-77
2022/08/19 13:55:35;;;;;;;11.50;4.85;;;;;;;;;;5072477;28;20025;-77
2022/08/19 13:58:02;;;;;;;5.93;4.70;;;;;;;;;;5071533;28;20539;-77
2022/08/19 14:00:32;;;;;;;7.47;4.53;;;;;;;;;;5072782;28;20033;-77
2022/08/19 14:02:58;;;;;;;5.55;3.65;;;;;;;;;;5070767;28;20458;-77
2022/08/19 14:05:25;;;;;;;7.22;4.88;;;;;;;;;;5068016;28;20448;-77
2022/08/19 14:07:51;;;;;;;6.25;4.80;;;;;;;;;;5051375;28;20504;-77
2022/08/19 14:10:18;;;;;;;6.15;4.53;;;;;;;;;;5072302;28;20032;-77
2022/08/19 14:12:44;;;;;;;9.77;4.65;;;;;;;;;;5069519;28;20025;-77
2022/08/19 14:15:12;;;;;;;6.60;4.45;;;;;;;;;;5074890;28;20046;-77
2022/08/19 14:17:39;;;;;;;6.25;4.18;;;;;;;;;;5066968;28;20060;-78
2022/08/19 14:20:08;;;;;;;7.68;5.00;;;;;;;;;;5067885;28;20098;-78
2022/08/19 14:22:35;;;;;;;6.47;4.88;;;;;;;;;;5069972;28;20878;-77
2022/08/19 14:25:01;;;;;;;7.65;5.05;;;;;;;;;;5071619;28;20029;-78
2022/08/19 14:27:27;;;;;;;7.78;5.13;;;;;;;;;;5072317;28;20422;-77
2022/08/19 14:29:54;;;;;;;6.00;4.95;;;;;;;;;;5073510;28;20031;-78
2022/08/19 14:32:21;;;;;;;8.00;5.10;;;;;;;;;;5074652;28;20024;-78
2022/08/19 14:34:47;;;;;;;7.90;4.70;;;;;;;;;;5072755;28;20135;-77
2022/08/19 14:37:14;;;;;;;6.00;4.57;;;;;;;;;;5068774;28;20111;-77
2022/08/19 14:39:40;;;;;;;6.18;4.43;;;;;;;;;;5071201;28;22482;-77
2022/08/19 14:42:09;;;;;;;6.70;4.53;;;;;;;;;;5071988;28;20895;-77
2022/08/19 14:44:36;;;;;;;5.50;4.68;;;;;;;;;;5071330;28;20031;-77
2022/08/19 14:47:02;;;;;;;6.38;4.80;;;;;;;;;;5072139;28;20761;-77
2022/08/19 14:49:28;;;;;;;7.53;4.60;;;;;;;;;;5063743;28;20535;-78
2022/08/19 14:51:54;;;;;;;6.10;3.85;;;;;;;;;;5070488;28;20104;-77
2022/08/19 14:54:21;;;;;;;7.57;5.18;;;;;;;;;;5075215;28;20055;-77
2022/08/19 14:56:47;;;;;;;7.88;5.03;;;;;;;;;;5070585;28;20029;-77
2022/08/19 14:59:13;;;;;;;6.82;4.90;;;;;;;;;;5072233;28;20075;-77
2022/08/19 15:01:39;;;;;;;7.70;4.93;;;;;;;;;;5065937;28;20648;-77
2022/08/19 15:04:05;;;;;;;7.05;4.55;;;;;;;;;;5072158;28;20032;-77